createdAt,value
2019-05-22T00:01:16.090Z,60.50
2019-05-22T00:04:07.942Z,61.40
2019-05-22T00:06:43.802Z,61.50
2019-05-22T00:09:23.236Z,61.50
2019-05-22T00:11:59.429Z,62.00
2019-05-22T00:14:33.526Z,61.90
2019-05-22T00:17:09.814Z,62.10
2019-05-22T00:19:45.262Z,61.80
2019-05-22T00:22:26.852Z,62.40
2019-05-22T00:25:01.898Z,62.70
2019-05-22T00:27:37.830Z,63.50
2019-05-22T00:30:17.207Z,64.50
2019-05-22T00:32:51.445Z,65.00
2019-05-22T00:35:27.942Z,64.20
2019-05-22T00:38:03.674Z,63.30
2019-05-22T00:40:45.687Z,62.60
2019-05-22T00:43:18.974Z,62.60
2019-05-22T00:45:54.951Z,61.90
2019-05-22T00:48:30.727Z,61.50
2019-05-22T00:51:24.390Z,61.10
2019-05-22T00:54:22.806Z,60.70
2019-05-22T00:57:16.008Z,60.20
2019-05-22T00:59:51.561Z,60.20
2019-05-22T01:02:28.266Z,60.40
2019-05-22T01:05:02.455Z,60.20
2019-05-22T01:07:43.424Z,60.10
2019-05-22T01:10:18.869Z,60.00
2019-05-22T01:12:57.260Z,60.40
2019-05-22T01:15:32.321Z,60.40
2019-05-22T01:18:11.155Z,60.20
2019-05-22T01:20:47.276Z,60.90
2019-05-22T01:23:22.190Z,60.80
2019-05-22T01:25:57.557Z,61.70
2019-05-22T01:28:30.772Z,60.90
2019-05-22T01:31:11.747Z,60.70
2019-05-22T01:33:54.486Z,60.00
2019-05-22T01:36:59.068Z,60.00
2019-05-22T01:39:47.955Z,60.00
2019-05-22T01:42:27.998Z,59.90
2019-05-22T01:45:06.565Z,59.90
2019-05-22T01:48:01.227Z,59.80
2019-05-22T01:50:55.671Z,59.50
2019-05-22T01:53:36.811Z,59.50
2019-05-22T01:56:12.993Z,59.20
2019-05-22T01:58:48.584Z,59.20
2019-05-22T02:01:23.958Z,59.60
2019-05-22T02:03:59.113Z,59.60
2019-05-22T02:06:34.525Z,59.70
2019-05-22T02:09:34.075Z,59.60
2019-05-22T02:12:37.963Z,59.00
2019-05-22T02:15:13.620Z,58.60
2019-05-22T02:17:50.286Z,58.20
2019-05-22T02:20:25.010Z,58.10
2019-05-22T02:22:58.875Z,57.80
2019-05-22T02:25:34.931Z,57.90
2019-05-22T02:28:10.797Z,58.80
2019-05-22T02:30:47.313Z,59.60
2019-05-22T02:33:22.695Z,60.00
2019-05-22T02:35:57.666Z,59.60
2019-05-22T02:38:32.611Z,60.20
2019-05-22T02:41:09.253Z,60.90
2019-05-22T02:43:44.102Z,60.90
2019-05-22T02:46:19.235Z,61.10
2019-05-22T02:48:52.755Z,60.70
2019-05-22T02:51:27.088Z,60.00
2019-05-22T02:54:02.633Z,59.50
2019-05-22T02:56:37.512Z,58.90
2019-05-22T02:59:13.253Z,58.70
2019-05-22T03:01:47.835Z,58.40
2019-05-22T03:04:23.309Z,57.90
2019-05-22T03:06:59.138Z,58.60
2019-05-22T03:09:34.685Z,58.80
2019-05-22T03:12:13.770Z,58.20
2019-05-22T03:14:49.369Z,57.80
2019-05-22T03:17:31.985Z,58.10
2019-05-22T03:20:12.823Z,57.70
2019-05-22T03:23:22.994Z,57.40
2019-05-22T03:25:57.406Z,57.60
2019-05-22T03:28:32.640Z,57.80
2019-05-22T03:31:06.374Z,58.00
2019-05-22T03:33:40.393Z,57.50
2019-05-22T03:36:21.574Z,57.80
2019-05-22T03:38:56.269Z,57.40
2019-05-22T03:41:30.826Z,57.40
2019-05-22T03:44:05.944Z,56.80
2019-05-22T03:46:47.037Z,56.40
2019-05-22T03:49:31.182Z,56.00
2019-05-22T03:51:59.330Z,55.70
2019-05-22T03:54:33.828Z,56.00
2019-05-22T03:57:08.347Z,55.90
2019-05-22T03:59:43.299Z,56.50
2019-05-22T04:02:17.346Z,56.50
2019-05-22T04:04:52.728Z,57.10
2019-05-22T04:07:29.191Z,57.20
2019-05-22T04:10:06.237Z,56.90
2019-05-22T04:12:40.845Z,57.40
2019-05-22T04:15:15.054Z,57.30
2019-05-22T04:17:51.448Z,57.10
2019-05-22T04:20:26.552Z,57.30
2019-05-22T04:23:01.469Z,57.70
2019-05-22T04:25:35.781Z,57.30
2019-05-22T04:28:08.788Z,57.00
2019-05-22T04:30:43.184Z,57.10
2019-05-22T04:33:19.378Z,57.00
2019-05-22T04:35:53.188Z,57.70
2019-05-22T04:38:28.869Z,57.70
2019-05-22T04:41:04.293Z,57.10
2019-05-22T04:43:38.920Z,56.80
2019-05-22T04:46:13.162Z,56.80
2019-05-22T04:48:46.725Z,57.20
2019-05-22T04:51:40.006Z,57.10
2019-05-22T04:54:13.902Z,57.60
2019-05-22T04:56:48.857Z,57.60
2019-05-22T04:59:23.660Z,58.50
2019-05-22T05:01:58.281Z,58.40
2019-05-22T05:04:32.390Z,57.60
2019-05-22T05:07:07.502Z,57.80
2019-05-22T05:09:45.672Z,57.60
2019-05-22T05:12:19.229Z,57.00
2019-05-22T05:14:52.565Z,56.60
2019-05-22T05:17:26.015Z,56.40
2019-05-22T05:19:58.809Z,56.30
2019-05-22T05:22:47.155Z,56.00
2019-05-22T05:25:21.232Z,56.00
2019-05-22T05:27:56.054Z,56.10
2019-05-22T05:30:30.862Z,56.00
2019-05-22T05:33:04.343Z,55.40
2019-05-22T05:35:40.028Z,55.30
2019-05-22T05:38:16.325Z,56.20
2019-05-22T05:40:49.557Z,55.80
2019-05-22T05:43:23.744Z,56.00
2019-05-22T05:45:58.645Z,55.40
2019-05-22T05:48:33.699Z,55.40
2019-05-22T05:51:45.982Z,55.00
2019-05-22T05:54:23.653Z,54.50
2019-05-22T05:56:59.184Z,53.70
2019-05-22T05:59:33.709Z,54.10
2019-05-22T06:02:08.666Z,54.80
2019-05-22T06:04:43.566Z,55.50
2019-05-22T06:07:27.283Z,56.10
2019-05-22T06:11:02.922Z,55.30
2019-05-22T06:13:36.881Z,56.30
2019-05-22T06:17:12.105Z,56.30
2019-05-22T06:19:48.969Z,56.20
2019-05-22T06:22:24.012Z,55.40
2019-05-22T06:25:06.957Z,56.30
2019-05-22T06:27:50.529Z,56.90
2019-05-22T06:30:46.636Z,58.00
2019-05-22T06:33:35.662Z,56.10
2019-05-22T06:36:15.438Z,55.40
2019-05-22T06:39:00.463Z,54.80
2019-05-22T06:41:36.482Z,55.80
2019-05-22T06:44:43.851Z,55.80
2019-05-22T06:47:21.560Z,55.40
2019-05-22T06:49:57.126Z,56.30
2019-05-22T06:52:29.734Z,56.10
2019-05-22T06:55:04.943Z,55.00
2019-05-22T06:57:38.583Z,54.00
2019-05-22T07:00:24.167Z,54.70
2019-05-22T07:02:57.874Z,54.00
2019-05-22T07:05:31.885Z,53.80
2019-05-22T07:08:06.147Z,54.20
2019-05-22T07:10:42.275Z,54.80
2019-05-22T07:13:17.124Z,53.30
2019-05-22T07:15:52.678Z,54.50
2019-05-22T07:18:31.900Z,55.30
2019-05-22T07:21:07.356Z,54.50
2019-05-22T07:23:42.511Z,54.30
2019-05-22T07:26:16.919Z,55.70
2019-05-22T07:28:51.411Z,55.70
2019-05-22T07:31:25.382Z,56.30
2019-05-22T07:34:00.270Z,55.70
2019-05-22T07:36:35.405Z,55.90
2019-05-22T07:39:10.690Z,55.30
2019-05-22T07:41:43.438Z,56.20
2019-05-22T07:44:17.241Z,56.30
2019-05-22T07:46:50.158Z,55.40
2019-05-22T07:49:23.679Z,55.40
2019-05-22T07:52:01.600Z,55.00
2019-05-22T07:54:31.676Z,55.00
2019-05-22T07:57:05.356Z,55.10
2019-05-22T07:59:38.390Z,54.30
2019-05-22T08:02:14.305Z,53.50
2019-05-22T08:04:48.129Z,54.20
2019-05-22T08:07:24.682Z,54.40
2019-05-22T08:09:57.924Z,54.70
2019-05-22T08:12:32.396Z,54.00
2019-05-22T08:15:07.193Z,54.50
2019-05-22T08:17:41.622Z,54.20
2019-05-22T08:20:14.923Z,53.50
2019-05-22T08:22:49.176Z,53.60
2019-05-22T08:25:21.567Z,53.00
2019-05-22T08:27:58.666Z,52.00
2019-05-22T08:30:32.303Z,51.50
2019-05-22T08:33:10.650Z,51.70
2019-05-22T08:35:44.312Z,52.10
2019-05-22T08:38:17.526Z,51.70
2019-05-22T08:40:53.050Z,51.10
2019-05-22T08:43:26.053Z,50.40
2019-05-22T08:46:00.090Z,51.00
2019-05-22T08:48:35.514Z,50.60
2019-05-22T08:51:09.874Z,51.00
2019-05-22T08:53:47.985Z,51.10
2019-05-22T08:56:20.210Z,51.00
2019-05-22T08:58:55.016Z,51.20
2019-05-22T09:01:29.081Z,51.10
2019-05-22T09:04:02.606Z,49.80
2019-05-22T09:06:35.182Z,50.40
2019-05-22T09:09:08.994Z,50.50
2019-05-22T09:11:41.452Z,50.60
2019-05-22T09:14:14.874Z,50.40
2019-05-22T09:16:48.903Z,50.50
2019-05-22T09:19:21.362Z,50.70
2019-05-22T09:21:54.920Z,50.90
2019-05-22T09:24:28.892Z,49.40
2019-05-22T09:27:02.889Z,49.30
2019-05-22T09:29:35.139Z,50.00
2019-05-22T09:32:09.230Z,49.60
2019-05-22T09:34:42.521Z,48.80
2019-05-22T09:37:16.791Z,49.70
2019-05-22T09:39:50.817Z,48.40
2019-05-22T09:42:25.044Z,48.10
2019-05-22T09:44:58.298Z,47.30
2019-05-22T09:47:32.951Z,47.60
2019-05-22T09:50:06.864Z,47.70
2019-05-22T09:52:56.361Z,48.50
2019-05-22T09:55:17.656Z,48.00
2019-05-22T09:57:51.275Z,48.60
2019-05-22T10:00:25.711Z,47.80
2019-05-22T10:03:00.031Z,48.10
2019-05-22T10:05:35.205Z,48.60
2019-05-22T10:08:09.354Z,48.00
2019-05-22T10:10:43.240Z,48.60
2019-05-22T10:13:18.053Z,48.60
2019-05-22T10:15:52.531Z,47.00
2019-05-22T10:18:27.240Z,47.40
2019-05-22T10:21:00.715Z,47.10
2019-05-22T10:23:34.177Z,47.20
2019-05-22T10:26:08.304Z,47.50
2019-05-22T10:28:41.965Z,48.00
2019-05-22T10:31:17.290Z,48.00
2019-05-22T10:33:52.016Z,48.00
2019-05-22T10:36:26.118Z,48.00
2019-05-22T10:39:00.777Z,47.90
2019-05-22T10:41:34.673Z,47.70
2019-05-22T10:44:08.297Z,48.00
2019-05-22T10:46:43.246Z,47.30
2019-05-22T10:49:16.728Z,46.10
2019-05-22T10:51:51.595Z,44.50
2019-05-22T10:54:25.407Z,46.40
2019-05-22T10:56:59.727Z,47.10
2019-05-22T10:59:33.084Z,48.10
2019-05-22T11:02:06.958Z,47.70
2019-05-22T11:04:42.104Z,46.40
2019-05-22T11:07:15.976Z,46.00
2019-05-22T11:09:51.638Z,46.40
2019-05-22T11:12:26.132Z,46.70
2019-05-22T11:14:59.405Z,45.90
2019-05-22T11:17:33.371Z,45.90
2019-05-22T11:20:08.174Z,45.10
2019-05-22T11:22:42.926Z,45.60
2019-05-22T11:25:17.270Z,46.20
2019-05-22T11:27:51.246Z,44.60
2019-05-22T11:30:24.968Z,44.60
2019-05-22T11:32:59.662Z,44.60
2019-05-22T11:35:34.789Z,43.40
2019-05-22T11:38:09.446Z,44.00
2019-05-22T11:40:44.061Z,44.00
2019-05-22T11:43:18.279Z,45.00
2019-05-22T11:45:52.070Z,45.30
2019-05-22T11:48:26.014Z,46.10
2019-05-22T11:51:00.979Z,45.50
2019-05-22T11:53:35.067Z,45.30
2019-05-22T11:56:08.970Z,45.40
2019-05-22T11:58:42.518Z,45.20
2019-05-22T12:01:15.439Z,46.10
2019-05-22T12:03:49.240Z,45.30
2019-05-22T12:06:22.105Z,45.50
2019-05-22T12:08:56.074Z,46.90
2019-05-22T12:11:29.099Z,45.40
2019-05-22T12:14:03.005Z,44.40
2019-05-22T12:16:36.664Z,44.40
2019-05-22T12:19:09.860Z,45.30
2019-05-22T12:21:42.791Z,45.80
2019-05-22T12:24:27.105Z,45.80
2019-05-22T12:26:51.020Z,46.10
2019-05-22T12:29:24.452Z,46.10
2019-05-22T12:31:57.654Z,45.60
2019-05-22T12:34:30.619Z,46.50
2019-05-22T12:37:03.632Z,47.50
2019-05-22T12:39:38.322Z,46.80
2019-05-22T12:42:14.061Z,46.50
2019-05-22T12:44:47.058Z,46.80
2019-05-22T12:47:21.562Z,46.90
2019-05-22T12:49:55.760Z,46.80
2019-05-22T12:52:29.856Z,45.80
2019-05-22T12:55:03.154Z,45.80
2019-05-22T12:57:36.512Z,45.40
2019-05-22T13:00:11.989Z,46.40
2019-05-22T13:02:46.600Z,45.10
2019-05-22T13:05:20.393Z,43.60
2019-05-22T13:07:54.302Z,42.10
2019-05-22T13:10:29.350Z,42.00
2019-05-22T13:13:06.202Z,42.70
2019-05-22T13:15:40.624Z,43.90
2019-05-22T13:18:16.397Z,44.60
2019-05-22T13:20:52.177Z,46.00
2019-05-22T13:23:29.192Z,46.70
2019-05-22T13:26:03.148Z,45.90
2019-05-22T13:28:38.813Z,44.90
2019-05-22T13:31:12.847Z,44.90
2019-05-22T13:33:46.882Z,44.90
2019-05-22T13:36:23.029Z,45.70
2019-05-22T13:38:55.619Z,45.30
2019-05-22T13:41:29.916Z,44.50
2019-05-22T13:44:06.516Z,44.30
2019-05-22T13:46:38.867Z,44.00
2019-05-22T13:49:11.461Z,44.60
2019-05-22T13:51:44.096Z,44.20
2019-05-22T13:54:17.152Z,44.80
2019-05-22T13:56:50.598Z,45.30
2019-05-22T13:59:23.927Z,44.00
2019-05-22T14:01:58.766Z,44.40
2019-05-22T14:04:31.634Z,44.30
2019-05-22T14:07:06.789Z,45.60
2019-05-22T14:09:41.760Z,44.30
2019-05-22T14:12:16.351Z,42.30
2019-05-22T14:14:50.311Z,43.00
2019-05-22T14:17:24.421Z,42.80
2019-05-22T14:19:58.236Z,43.60
2019-05-22T14:22:32.333Z,44.70
2019-05-22T14:25:06.168Z,44.60
2019-05-22T14:27:42.034Z,44.70
2019-05-22T14:30:16.879Z,45.30
2019-05-22T14:32:50.192Z,46.50
2019-05-22T14:35:25.886Z,47.40
2019-05-22T14:38:00.456Z,48.60
2019-05-22T14:40:36.304Z,48.80
2019-05-22T14:43:10.668Z,48.10
2019-05-22T14:45:46.305Z,47.40
2019-05-22T14:48:20.755Z,46.90
2019-05-22T14:50:54.613Z,46.30
2019-05-22T14:53:29.307Z,46.20
2019-05-22T14:56:03.942Z,45.60
2019-05-22T14:58:37.328Z,45.10
2019-05-22T15:01:11.419Z,45.40
2019-05-22T15:03:45.365Z,45.40
2019-05-22T15:06:20.776Z,47.00
2019-05-22T15:08:54.892Z,48.30
2019-05-22T15:11:28.884Z,50.20
2019-05-22T15:14:03.049Z,49.90
2019-05-22T15:16:37.600Z,52.30
2019-05-22T15:19:11.856Z,54.10
2019-05-22T15:21:45.796Z,56.30
2019-05-22T15:24:20.393Z,57.10
2019-05-22T15:26:54.771Z,56.40
2019-05-22T15:29:29.187Z,57.20
2019-05-22T15:32:04.237Z,59.20
2019-05-22T15:34:40.911Z,59.70
2019-05-22T15:37:20.138Z,60.10
2019-05-22T15:39:54.593Z,60.20
2019-05-22T15:42:45.055Z,59.60
2019-05-22T15:45:23.566Z,60.70
2019-05-22T15:48:01.717Z,60.90
2019-05-22T15:50:35.365Z,62.10
2019-05-22T15:53:15.140Z,63.00
2019-05-22T15:55:49.989Z,63.20
2019-05-22T15:58:25.906Z,62.50
2019-05-22T16:01:01.317Z,62.30
2019-05-22T16:03:35.731Z,61.90
2019-05-22T16:06:11.424Z,60.00
2019-05-22T16:08:45.710Z,59.20
2019-05-22T16:11:20.720Z,58.40
2019-05-22T16:13:57.795Z,57.40
2019-05-22T16:16:32.850Z,56.70
2019-05-22T16:19:12.500Z,56.70
2019-05-22T16:21:51.016Z,56.70
2019-05-22T16:24:25.315Z,56.20
2019-05-22T16:26:58.936Z,55.60
2019-05-22T16:29:36.943Z,55.20
2019-05-22T16:32:14.901Z,55.30
2019-05-22T16:34:50.007Z,54.70
2019-05-22T16:37:26.257Z,54.20
2019-05-22T16:40:01.293Z,54.20
2019-05-22T16:42:36.578Z,56.50
2019-05-22T16:45:11.558Z,57.00
2019-05-22T16:47:46.366Z,56.50
2019-05-22T16:50:21.009Z,56.30
2019-05-22T16:52:55.426Z,57.10
2019-05-22T16:55:30.351Z,58.60
2019-05-22T16:58:04.777Z,60.70
2019-05-22T17:00:39.439Z,60.80
2019-05-22T17:03:14.276Z,59.50
2019-05-22T17:05:47.724Z,59.10
2019-05-22T17:08:23.705Z,59.00
2019-05-22T17:10:59.302Z,59.10
2019-05-22T17:13:35.827Z,60.50
2019-05-22T17:16:10.879Z,60.90
2019-05-22T17:18:47.993Z,61.90
2019-05-22T17:21:20.787Z,65.80
2019-05-22T17:23:54.657Z,67.30
2019-05-22T17:26:27.912Z,66.30
2019-05-22T17:29:01.482Z,65.90
2019-05-22T17:31:35.248Z,67.30
2019-05-22T17:34:28.035Z,70.10
2019-05-22T17:37:03.343Z,69.40
2019-05-22T17:39:38.596Z,68.10
2019-05-22T17:42:14.327Z,65.60
2019-05-22T17:44:51.077Z,64.30
2019-05-22T17:47:27.205Z,64.30
2019-05-22T17:50:02.444Z,64.80
2019-05-22T17:52:35.611Z,64.20
2019-05-22T17:55:10.193Z,64.30
2019-05-22T17:57:43.963Z,63.70
2019-05-22T18:00:38.528Z,63.50
2019-05-22T18:03:11.299Z,63.40
2019-05-22T18:05:45.098Z,63.30
2019-05-22T18:08:18.377Z,62.80
2019-05-22T18:10:54.242Z,63.70
2019-05-22T18:13:28.881Z,64.50
2019-05-22T18:16:04.769Z,64.40
2019-05-22T18:18:38.508Z,64.80
2019-05-22T18:21:12.750Z,65.10
2019-05-22T18:23:47.211Z,65.50
2019-05-22T18:26:21.947Z,66.00
2019-05-22T18:28:56.264Z,66.10
2019-05-22T18:31:28.725Z,66.30
2019-05-22T18:34:01.570Z,65.90
2019-05-22T18:36:34.150Z,64.10
2019-05-22T18:39:09.708Z,65.30
2019-05-22T18:41:43.678Z,66.10
2019-05-22T18:44:17.946Z,66.00
2019-05-22T18:46:51.784Z,66.00
2019-05-22T18:49:25.923Z,65.40
2019-05-22T18:52:00.633Z,64.70
2019-05-22T18:54:34.727Z,64.50
2019-05-22T18:57:08.593Z,64.00
2019-05-22T18:59:42.461Z,64.00
2019-05-22T19:02:16.104Z,64.20
2019-05-22T19:04:49.062Z,64.50
2019-05-22T19:07:21.931Z,64.60
2019-05-22T19:09:55.042Z,64.20
2019-05-22T19:12:28.539Z,65.40
2019-05-22T19:15:01.330Z,66.30
2019-05-22T19:17:34.410Z,66.10
2019-05-22T19:20:07.278Z,65.30
2019-05-22T19:22:58.063Z,66.50
2019-05-22T19:25:15.749Z,66.80
2019-05-22T19:27:49.629Z,66.20
2019-05-22T19:30:24.348Z,65.90
2019-05-22T19:32:57.047Z,65.80
2019-05-22T19:35:29.081Z,65.70
2019-05-22T19:38:02.318Z,66.40
2019-05-22T19:40:36.245Z,66.70
2019-05-22T19:43:09.760Z,66.40
2019-05-22T19:45:43.279Z,67.50
2019-05-22T19:48:16.317Z,68.00
2019-05-22T19:50:49.694Z,67.70
2019-05-22T19:53:23.357Z,68.20
2019-05-22T19:55:56.726Z,68.00
2019-05-22T19:58:30.408Z,67.70
2019-05-22T20:01:03.585Z,67.00
2019-05-22T20:03:38.001Z,67.10
2019-05-22T20:06:11.783Z,67.00
2019-05-22T20:08:45.682Z,67.70
2019-05-22T20:11:19.434Z,67.30
2019-05-22T20:13:52.359Z,67.40
2019-05-22T20:16:25.767Z,67.80
2019-05-22T20:18:59.711Z,66.80
2019-05-22T20:21:32.707Z,66.50
2019-05-22T20:24:08.250Z,67.00
2019-05-22T20:26:40.755Z,68.50
2019-05-22T20:29:17.843Z,70.10
2019-05-22T20:31:50.604Z,70.50
2019-05-22T20:34:23.804Z,70.20
2019-05-22T20:36:57.738Z,70.00
2019-05-22T20:39:31.589Z,68.20
2019-05-22T20:42:05.205Z,67.20
2019-05-22T20:44:40.290Z,67.90
2019-05-22T20:47:17.312Z,67.20
2019-05-22T20:49:49.934Z,67.00
2019-05-22T20:52:26.068Z,67.20
2019-05-22T20:55:02.227Z,65.90
2019-05-22T20:57:36.361Z,66.50
2019-05-22T21:00:11.968Z,67.10
2019-05-22T21:02:45.684Z,68.00
2019-05-22T21:05:22.303Z,67.90
2019-05-22T21:08:00.530Z,68.40
2019-05-22T21:10:35.395Z,68.70
2019-05-22T21:13:10.686Z,69.10
2019-05-22T21:15:45.407Z,69.00
2019-05-22T21:18:21.754Z,68.80
2019-05-22T21:20:56.682Z,68.90
2019-05-22T21:23:31.790Z,67.80
2019-05-22T21:26:07.493Z,68.50
2019-05-22T21:28:41.815Z,67.90
2019-05-22T21:31:17.232Z,68.70
2019-05-22T21:33:50.701Z,67.80
2019-05-22T21:36:25.664Z,68.30
2019-05-22T21:39:00.785Z,68.90
2019-05-22T21:41:34.544Z,68.90
2019-05-22T21:44:09.976Z,69.50
2019-05-22T21:46:44.516Z,70.10
2019-05-22T21:49:20.204Z,69.00
2019-05-22T21:51:54.955Z,69.70
2019-05-22T21:54:29.302Z,69.30
2019-05-22T21:57:03.205Z,67.80
2019-05-22T21:59:37.551Z,67.40
2019-05-22T22:02:25.212Z,68.50
2019-05-22T22:04:59.327Z,68.70
2019-05-22T22:07:33.557Z,69.40
2019-05-22T22:10:07.827Z,69.30
2019-05-22T22:12:42.405Z,69.30
2019-05-22T22:15:15.424Z,69.60
2019-05-22T22:17:49.486Z,69.60
2019-05-22T22:20:24.234Z,69.60
2019-05-22T22:22:59.094Z,68.90
2019-05-22T22:25:33.156Z,68.50
2019-05-22T22:28:06.686Z,67.80
2019-05-22T22:30:47.037Z,67.80
2019-05-22T22:33:25.054Z,67.40
2019-05-22T22:35:59.266Z,65.90
2019-05-22T22:38:35.755Z,66.70
2019-05-22T22:41:13.021Z,67.70
2019-05-22T22:43:49.565Z,68.40
2019-05-22T22:46:40.783Z,67.90
2019-05-22T22:49:19.337Z,67.80
2019-05-22T22:51:54.176Z,66.20
2019-05-22T22:54:28.656Z,65.60
2019-05-22T22:57:03.748Z,65.40
2019-05-22T22:59:38.481Z,65.10
2019-05-22T23:02:17.497Z,65.10
2019-05-22T23:04:52.787Z,65.50
2019-05-22T23:07:28.161Z,65.60
2019-05-22T23:10:02.807Z,65.30
2019-05-22T23:12:39.878Z,66.30
2019-05-22T23:15:18.284Z,66.50
2019-05-22T23:17:53.743Z,66.30
2019-05-22T23:20:22.439Z,67.30
2019-05-22T23:22:52.632Z,66.90
2019-05-22T23:25:27.184Z,67.10
2019-05-22T23:28:03.189Z,67.10
2019-05-22T23:30:37.865Z,66.90
2019-05-22T23:33:11.565Z,67.60
2019-05-22T23:35:45.631Z,68.30
2019-05-22T23:38:19.766Z,67.70
2019-05-22T23:40:55.420Z,67.70
2019-05-22T23:43:30.318Z,67.20
2019-05-22T23:46:04.283Z,66.70
2019-05-22T23:48:38.762Z,68.30
2019-05-22T23:51:13.674Z,68.50
2019-05-22T23:53:48.834Z,69.20
2019-05-22T23:56:23.705Z,68.40
2019-05-22T23:58:59.118Z,67.40
